Time;durP1;ratioP1;P1;durP2;ratioP2;P2;SDS_P1;SDS_P2;PMS_P1;PMS_P2;Temp;Humidity;BMP_temperature;BMP_pressure;BME280_temperature;BME280_humidity;BME280_pressure;Samples;Min_cycle;Max_cycle;Signal;HPM_P1;HPM_P2
2023/03/11 00:02:14;;;;;;;13.05;6.32;;;9.40;99.90;;;;;;4970000;28;20026;-76
2023/03/11 00:04:40;;;;;;;15.88;7.30;;;9.50;99.90;;;;;;4968706;28;20058;-76
2023/03/11 00:07:07;;;;;;;11.05;6.30;;;9.70;99.90;;;;;;4974223;28;20031;-76
2023/03/11 00:09:33;;;;;;;14.85;7.40;;;9.80;99.90;;;;;;4964799;28;20062;-76
2023/03/11 00:11:59;;;;;;;11.45;5.45;;;9.70;99.90;;;;;;4965273;28;20420;-76
2023/03/11 00:14:25;;;;;;;12.38;6.35;;;9.50;99.90;;;;;;4967292;28;20045;-76
2023/03/11 00:16:50;;;;;;;10.13;5.90;;;9.40;99.90;;;;;;4977144;28;20030;-78
2023/03/11 00:19:16;;;;;;;15.40;6.18;;;9.30;99.90;;;;;;4968122;28;20038;-77
2023/03/11 00:21:42;;;;;;;12.43;6.70;;;9.30;99.90;;;;;;4974123;28;20523;-78
2023/03/11 00:24:08;;;;;;;9.80;5.28;;;9.40;99.90;;;;;;4968332;28;20050;-76
2023/03/11 00:26:33;;;;;;;10.02;5.55;;;9.40;99.90;;;;;;4975736;28;20023;-76
2023/03/11 00:28:59;;;;;;;16.50;6.57;;;9.40;99.90;;;;;;4978948;28;20030;-76
2023/03/11 00:31:27;;;;;;;16.08;7.03;;;9.30;99.90;;;;;;4968572;28;20625;-78
2023/03/11 00:33:56;;;;;;;13.80;6.72;;;9.30;99.90;;;;;;4974470;28;20118;-76
2023/03/11 00:36:35;;;;;;;10.30;5.32;;;9.30;99.90;;;;;;4981057;28;20041;-76
2023/03/11 00:39:05;;;;;;;12.02;6.57;;;9.40;99.90;;;;;;4985211;28;20064;-76
2023/03/11 00:41:33;;;;;;;10.70;5.35;;;9.20;99.90;;;;;;4970830;28;20109;-76
2023/03/11 00:43:59;;;;;;;12.70;5.80;;;9.00;99.90;;;;;;4975971;28;20675;-76
2023/03/11 00:46:26;;;;;;;9.43;5.68;;;8.90;99.90;;;;;;4972810;28;20034;-76
2023/03/11 00:48:51;;;;;;;12.52;5.88;;;8.80;99.90;;;;;;4973390;28;20026;-76
2023/03/11 00:51:17;;;;;;;13.10;5.93;;;8.90;99.90;;;;;;4966542;28;20034;-77
2023/03/11 00:53:43;;;;;;;12.55;5.45;;;9.20;99.90;;;;;;4964948;28;20031;-76
2023/03/11 00:56:14;;;;;;;12.57;7.10;;;9.30;99.90;;;;;;4974181;28;20031;-75
2023/03/11 00:58:42;;;;;;;14.65;6.55;;;9.30;99.90;;;;;;4970537;28;20023;-75
2023/03/11 01:01:09;;;;;;;9.82;5.55;;;9.30;99.90;;;;;;4978666;28;20518;-75
2023/03/11 01:03:35;;;;;;;8.07;5.60;;;9.30;99.90;;;;;;4983960;28;20034;-75
2023/03/11 01:06:01;;;;;;;9.65;5.80;;;9.20;99.90;;;;;;4992148;28;20032;-75
2023/03/11 01:08:28;;;;;;;12.30;5.28;;;8.90;99.90;;;;;;4983460;28;20039;-76
2023/03/11 01:10:54;;;;;;;8.43;4.68;;;9.00;99.90;;;;;;4973501;28;20022;-75
2023/03/11 01:13:20;;;;;;;11.43;5.05;;;8.90;99.90;;;;;;4975931;28;20037;-75
2023/03/11 01:15:46;;;;;;;12.65;4.20;;;8.80;99.90;;;;;;4990534;28;20424;-76
2023/03/11 01:18:12;;;;;;;8.90;4.97;;;8.90;99.90;;;;;;4979844;28;20771;-75
2023/03/11 01:20:38;;;;;;;7.63;4.28;;;8.80;99.90;;;;;;4971950;28;20027;-75
2023/03/11 01:23:05;;;;;;;12.30;5.72;;;8.70;99.90;;;;;;4979681;28;20038;-76
2023/03/11 01:25:31;;;;;;;8.77;5.00;;;8.90;99.90;;;;;;4975377;28;20027;-75
2023/03/11 01:27:57;;;;;;;15.23;4.63;;;8.80;99.90;;;;;;4974258;28;20022;-75
2023/03/11 01:30:24;;;;;;;8.43;4.10;;;8.70;99.90;;;;;;4977858;28;20031;-76
2023/03/11 01:32:51;;;;;;;8.23;3.20;;;8.40;99.90;;;;;;4979081;28;20061;-75
2023/03/11 01:35:18;;;;;;;8.38;3.30;;;8.40;99.90;;;;;;4980295;28;20035;-75
2023/03/11 01:37:45;;;;;;;7.30;3.80;;;8.60;99.90;;;;;;4981727;28;20381;-75
2023/03/11 01:40:18;;;;;;;5.38;3.13;;;8.60;99.90;;;;;;4973138;28;20093;-76
2023/03/11 01:42:44;;;;;;;8.35;3.58;;;8.60;99.90;;;;;;4974046;28;20034;-75
2023/03/11 01:45:27;;;;;;;6.28;3.63;;;8.50;99.90;;;;;;4984431;28;20029;-76
2023/03/11 01:47:53;;;;;;;9.32;4.00;;;8.40;99.90;;;;;;4983079;28;20039;-76
2023/03/11 01:50:19;;;;;;;7.10;3.50;;;8.70;99.90;;;;;;4979658;28;20034;-76
2023/03/11 01:52:45;;;;;;;6.93;3.42;;;8.40;99.90;;;;;;4980997;28;20041;-75
2023/03/11 01:55:13;;;;;;;6.78;3.65;;;8.20;99.90;;;;;;4986413;28;20073;-76
2023/03/11 01:57:41;;;;;;;6.72;3.15;;;8.10;99.90;;;;;;4980538;28;20023;-76
2023/03/11 02:00:09;;;;;;;7.32;3.55;;;8.10;99.90;;;;;;4972531;28;20138;-75
2023/03/11 02:02:41;;;;;;;8.93;4.07;;;8.30;99.90;;;;;;4985897;28;20802;-75
2023/03/11 02:05:08;;;;;;;8.05;4.38;;;8.40;99.90;;;;;;4982081;28;20473;-76
2023/03/11 02:07:34;;;;;;;7.13;2.97;;;8.20;99.90;;;;;;4975769;28;20366;-76
2023/03/11 02:10:01;;;;;;;6.05;3.53;;;8.00;99.90;;;;;;4971675;28;20057;-75
2023/03/11 02:12:30;;;;;;;5.85;2.30;;;7.90;99.90;;;;;;4973597;28;20034;-76
2023/03/11 02:14:55;;;;;;;5.18;2.97;;;7.80;99.90;;;;;;4979605;28;20041;-76
2023/03/11 02:17:21;;;;;;;6.72;2.83;;;7.90;99.90;;;;;;4975587;28;20389;-75
2023/03/11 02:20:21;;;;;;;6.57;3.03;;;8.10;99.90;;;;;;4984407;28;20572;-75
2023/03/11 02:22:48;;;;;;;8.23;3.70;;;8.30;99.90;;;;;;4979083;28;20035;-75
2023/03/11 02:25:38;;;;;;;10.30;4.28;;;8.20;99.90;;;;;;4978246;28;20050;-76
2023/03/11 02:28:08;;;;;;;9.68;4.18;;;8.10;99.90;;;;;;4978404;28;20069;-75
2023/03/11 02:30:34;;;;;;;9.15;4.30;;;7.90;99.90;;;;;;4978111;28;20117;-76
2023/03/11 02:33:01;;;;;;;5.85;3.47;;;7.90;99.90;;;;;;4976304;28;20026;-75
2023/03/11 02:35:26;;;;;;;5.65;2.83;;;7.90;99.90;;;;;;4984988;28;20120;-75
2023/03/11 02:37:53;;;;;;;6.15;2.70;;;8.00;99.90;;;;;;4989671;28;20121;-76
2023/03/11 02:40:21;;;;;;;5.32;2.90;;;7.70;99.90;;;;;;4983917;28;20034;-75
2023/03/11 02:42:49;;;;;;;5.88;2.90;;;7.90;99.90;;;;;;4971588;28;20109;-75
2023/03/11 02:45:18;;;;;;;5.60;2.65;;;8.00;99.90;;;;;;4986851;28;20544;-76
2023/03/11 02:47:44;;;;;;;10.70;4.13;;;8.20;99.90;;;;;;4975496;28;20042;-76
2023/03/11 02:50:14;;;;;;;7.97;3.58;;;8.00;99.90;;;;;;4986919;28;20404;-75
2023/03/11 02:52:40;;;;;;;6.68;2.67;;;8.00;99.90;;;;;;4972878;28;20405;-75
2023/03/11 02:55:07;;;;;;;6.82;3.45;;;7.90;99.90;;;;;;4981338;28;20113;-76
2023/03/11 02:57:32;;;;;;;6.75;3.30;;;8.00;99.90;;;;;;4982375;28;20058;-75
2023/03/11 03:00:01;;;;;;;6.50;3.08;;;8.10;99.90;;;;;;4971322;28;20517;-75
2023/03/11 03:02:26;;;;;;;9.30;4.32;;;8.00;99.90;;;;;;4979402;28;20408;-75
2023/03/11 03:04:52;;;;;;;7.25;4.72;;;7.90;99.90;;;;;;4987864;28;20101;-76
2023/03/11 03:07:18;;;;;;;7.18;3.78;;;7.90;99.90;;;;;;4982878;28;20030;-75
2023/03/11 03:09:43;;;;;;;8.57;3.47;;;7.70;99.90;;;;;;4981279;28;20023;-76
2023/03/11 03:12:09;;;;;;;7.90;3.03;;;7.70;99.90;;;;;;4976119;28;20453;-75
2023/03/11 03:14:35;;;;;;;5.10;1.67;;;7.80;99.90;;;;;;4982211;28;20034;-75
2023/03/11 03:17:01;;;;;;;4.10;2.15;;;7.70;99.50;;;;;;4976925;28;20035;-76
2023/03/11 03:19:27;;;;;;;4.85;2.78;;;7.70;99.90;;;;;;4982863;28;20077;-75
2023/03/11 03:21:52;;;;;;;8.10;2.92;;;7.70;99.90;;;;;;4983995;28;20046;-75
2023/03/11 03:24:18;;;;;;;8.32;2.72;;;7.80;99.90;;;;;;4984370;28;20401;-75
2023/03/11 03:26:44;;;;;;;4.18;2.30;;;7.80;99.50;;;;;;4970604;28;20035;-76
2023/03/11 03:29:09;;;;;;;4.60;1.60;;;7.60;99.80;;;;;;4983497;28;20053;-75
2023/03/11 03:31:35;;;;;;;7.00;2.40;;;7.50;99.90;;;;;;4984513;28;20035;-76
2023/03/11 03:34:00;;;;;;;4.03;2.20;;;7.40;99.90;;;;;;4984361;28;20033;-75
2023/03/11 03:36:26;;;;;;;4.18;1.80;;;7.60;99.90;;;;;;4978003;28;20026;-75
2023/03/11 03:38:56;;;;;;;6.05;3.22;;;7.90;98.90;;;;;;4975099;28;20042;-76
2023/03/11 03:41:22;;;;;;;9.35;3.22;;;8.00;99.40;;;;;;4975896;28;20071;-76
2023/03/11 03:43:48;;;;;;;4.60;2.67;;;7.90;99.90;;;;;;4979009;28;20035;-76
2023/03/11 03:46:14;;;;;;;6.97;3.00;;;7.90;99.90;;;;;;4976070;28;20030;-75
2023/03/11 03:48:39;;;;;;;6.15;1.92;;;7.70;99.90;;;;;;4979840;28;20093;-76
2023/03/11 03:51:11;;;;;;;3.75;1.80;;;7.60;98.80;;;;;;4978998;28;20096;-76
2023/03/11 03:53:37;;;;;;;4.22;2.15;;;7.50;99.40;;;;;;4985027;28;20038;-75
2023/03/11 03:56:08;;;;;;;4.88;2.70;;;7.60;99.40;;;;;;4981068;28;20022;-75
2023/03/11 03:58:34;;;;;;;7.60;2.78;;;7.70;99.90;;;;;;4981564;28;20485;-76
2023/03/11 04:01:00;;;;;;;5.43;3.10;;;7.70;99.90;;;;;;4988637;28;20061;-75
2023/03/11 04:03:26;;;;;;;5.47;2.00;;;7.60;99.90;;;;;;4974613;28;20724;-76
2023/03/11 04:05:52;;;;;;;3.10;1.52;;;7.50;99.80;;;;;;4972033;28;20030;-75
2023/03/11 04:08:18;;;;;;;5.18;1.52;;;7.50;99.50;;;;;;4966583;28;20105;-76
2023/03/11 04:10:54;;;;;;;3.70;1.40;;;7.50;98.70;;;;;;4983671;28;20030;-76
2023/03/11 04:13:20;;;;;;;5.47;1.65;;;7.50;98.80;;;;;;4975164;28;20035;-76
2023/03/11 04:15:46;;;;;;;4.80;2.08;;;7.50;98.80;;;;;;4975264;28;20037;-78
2023/03/11 04:18:11;;;;;;;2.58;1.20;;;7.70;98.80;;;;;;4970846;28;20124;-76
2023/03/11 04:20:38;;;;;;;4.28;1.52;;;7.80;98.60;;;;;;4963867;28;20035;-76
2023/03/11 04:23:03;;;;;;;3.03;1.42;;;7.60;98.30;;;;;;4966107;28;20782;-76
2023/03/11 04:25:29;;;;;;;3.80;1.33;;;7.50;98.30;;;;;;4981910;28;20117;-76
2023/03/11 04:27:55;;;;;;;2.80;1.20;;;7.60;98.60;;;;;;4966550;28;20030;-77
2023/03/11 04:30:20;;;;;;;5.30;2.47;;;7.50;98.80;;;;;;4969194;28;20708;-76
2023/03/11 04:32:46;;;;;;;4.97;2.15;;;7.50;99.90;;;;;;4976359;28;20026;-76
2023/03/11 04:35:12;;;;;;;5.00;1.52;;;7.60;98.60;;;;;;4972502;28;20026;-76
2023/03/11 04:37:38;;;;;;;3.00;1.42;;;7.60;98.90;;;;;;4971113;28;20058;-76
2023/03/11 04:40:05;;;;;;;3.30;1.50;;;7.50;98.70;;;;;;4978315;28;20029;-76
2023/03/11 04:42:31;;;;;;;5.13;1.70;;;7.40;99.00;;;;;;4976334;28;20426;-76
2023/03/11 04:44:57;;;;;;;5.70;3.05;;;7.30;99.20;;;;;;4970518;28;20030;-76
2023/03/11 04:47:22;;;;;;;3.83;2.00;;;7.20;99.90;;;;;;4970253;28;20035;-76
2023/03/11 04:49:48;;;;;;;3.53;1.88;;;7.20;99.90;;;;;;4982679;28;20608;-76
2023/03/11 04:52:14;;;;;;;5.28;1.40;;;7.30;99.90;;;;;;4979086;28;20481;-77
2023/03/11 04:54:39;;;;;;;3.60;0.90;;;7.20;99.10;;;;;;4977396;28;20193;-76
2023/03/11 04:57:05;;;;;;;3.60;1.88;;;7.40;98.30;;;;;;4969578;28;20038;-76
2023/03/11 04:59:31;;;;;;;3.70;1.63;;;7.50;98.50;;;;;;4968581;28;20057;-76
2023/03/11 05:01:56;;;;;;;2.22;0.90;;;7.60;98.60;;;;;;4966768;28;20046;-76
2023/03/11 05:04:22;;;;;;;3.03;0.93;;;7.60;97.60;;;;;;4977884;28;20030;-76
2023/03/11 05:06:50;;;;;;;4.72;1.38;;;7.50;97.90;;;;;;4982903;28;20027;-76
2023/03/11 05:09:15;;;;;;;3.80;1.60;;;7.40;98.30;;;;;;4971603;28;20033;-76
2023/03/11 05:11:41;;;;;;;7.18;1.75;;;7.40;99.50;;;;;;4975987;28;20042;-77
2023/03/11 05:14:07;;;;;;;3.83;1.88;;;7.30;99.70;;;;;;4973510;28;20039;-76
2023/03/11 05:16:33;;;;;;;4.40;2.00;;;7.10;99.60;;;;;;4975258;28;20030;-76
2023/03/11 05:18:58;;;;;;;2.85;1.38;;;7.10;99.90;;;;;;4977985;28;20030;-78
2023/03/11 05:21:24;;;;;;;3.38;1.40;;;7.10;98.80;;;;;;4969262;28;20576;-76
2023/03/11 05:23:49;;;;;;;3.55;1.25;;;7.00;98.90;;;;;;4976306;28;20042;-76
2023/03/11 05:26:15;;;;;;;2.40;1.15;;;7.00;98.80;;;;;;4985828;28;20026;-76
2023/03/11 05:28:41;;;;;;;4.68;1.52;;;7.10;98.00;;;;;;4982702;28;20774;-75
2023/03/11 05:31:08;;;;;;;3.13;1.08;;;7.30;98.40;;;;;;4968530;28;20694;-76
2023/03/11 05:33:34;;;;;;;3.45;0.98;;;7.50;96.80;;;;;;4972465;28;20508;-76
2023/03/11 05:36:08;;;;;;;3.75;1.88;;;7.80;96.40;;;;;;4966587;28;20034;-76
2023/03/11 05:38:38;;;;;;;4.22;1.60;;;8.00;97.50;;;;;;4965298;28;20041;-78
2023/03/11 05:41:05;;;;;;;2.50;1.17;;;7.80;97.10;;;;;;4966654;28;20039;-76
2023/03/11 05:43:30;;;;;;;1.52;0.57;;;7.80;97.00;;;;;;4966210;28;20042;-76
2023/03/11 05:45:56;;;;;;;2.13;0.82;;;7.80;95.90;;;;;;4973104;28;20027;-76
2023/03/11 05:48:21;;;;;;;2.60;1.20;;;7.70;96.30;;;;;;4976610;28;20042;-77
2023/03/11 05:50:47;;;;;;;3.88;1.23;;;7.60;97.30;;;;;;4978941;28;20035;-76
2023/03/11 05:53:13;;;;;;;2.90;1.17;;;7.40;97.40;;;;;;4964168;28;20058;-78
2023/03/11 05:55:38;;;;;;;5.68;1.50;;;7.30;97.90;;;;;;4973466;28;20027;-78
2023/03/11 05:58:04;;;;;;;4.63;1.52;;;6.90;97.90;;;;;;4968301;28;20053;-76
2023/03/11 06:00:30;;;;;;;2.00;0.70;;;6.70;98.20;;;;;;4976154;28;20508;-77
2023/03/11 06:02:56;;;;;;;2.00;0.82;;;6.80;97.60;;;;;;4977339;28;20077;-76
2023/03/11 06:05:22;;;;;;;4.80;1.45;;;6.90;97.10;;;;;;4972790;28;20585;-76
2023/03/11 06:07:47;;;;;;;2.78;1.05;;;7.00;97.70;;;;;;4975894;28;20071;-76
2023/03/11 06:10:13;;;;;;;5.93;1.40;;;7.00;97.60;;;;;;4968458;28;20035;-76
2023/03/11 06:12:39;;;;;;;3.35;1.23;;;7.10;97.70;;;;;;4966035;28;20540;-76
2023/03/11 06:15:06;;;;;;;3.50;1.52;;;7.20;97.80;;;;;;4978980;28;20041;-76
2023/03/11 06:17:32;;;;;;;3.25;1.17;;;7.40;97.30;;;;;;4976863;28;20087;-77
2023/03/11 06:19:57;;;;;;;4.35;2.25;;;7.40;97.10;;;;;;4973599;28;20496;-77
2023/03/11 06:22:23;;;;;;;4.60;2.35;;;7.50;98.30;;;;;;4966585;28;20039;-76
2023/03/11 06:24:49;;;;;;;4.57;2.15;;;7.30;98.90;;;;;;4972846;28;20462;-77
2023/03/11 06:27:14;;;;;;;3.97;1.70;;;6.80;99.90;;;;;;4967094;28;20026;-76
2023/03/11 06:29:40;;;;;;;4.78;1.48;;;6.70;99.90;;;;;;4965738;28;20532;-76
2023/03/11 06:32:06;;;;;;;2.80;1.35;;;6.80;99.20;;;;;;4971826;28;20033;-76
2023/03/11 06:34:32;;;;;;;4.35;1.83;;;6.90;98.50;;;;;;4970403;28;20038;-76
2023/03/11 06:36:59;;;;;;;3.05;1.33;;;7.20;98.00;;;;;;4967367;28;20046;-76
2023/03/11 06:39:24;;;;;;;4.05;1.52;;;7.50;97.60;;;;;;4978745;28;20053;-76
2023/03/11 06:41:50;;;;;;;2.85;1.13;;;7.50;97.20;;;;;;4969033;28;20476;-77
2023/03/11 06:44:15;;;;;;;2.33;1.10;;;7.50;97.80;;;;;;4973738;28;20035;-76
2023/03/11 06:46:41;;;;;;;3.22;1.50;;;7.40;97.40;;;;;;4972867;28;20023;-76
2023/03/11 06:49:07;;;;;;;3.50;1.58;;;7.30;97.70;;;;;;4972600;28;20370;-76
2023/03/11 06:51:33;;;;;;;5.60;1.75;;;7.20;97.60;;;;;;4971978;28;20047;-76
2023/03/11 06:53:59;;;;;;;3.85;1.75;;;7.60;97.70;;;;;;4965283;28;20043;-76
2023/03/11 06:56:24;;;;;;;2.58;1.40;;;7.70;97.40;;;;;;4977018;28;20097;-77
2023/03/11 06:58:50;;;;;;;7.88;3.08;;;7.90;97.70;;;;;;4971230;28;20031;-76
2023/03/11 07:01:21;;;;;;;7.35;3.65;;;7.50;99.30;;;;;;4965192;28;20031;-76
2023/03/11 07:03:48;;;;;;;5.05;2.90;;;6.90;99.90;;;;;;4968281;28;20046;-76
2023/03/11 07:06:25;;;;;;;5.10;2.60;;;6.80;99.90;;;;;;4968101;28;20542;-76
2023/03/11 07:08:52;;;;;;;5.00;1.88;;;6.90;99.90;;;;;;4974616;28;20035;-76
2023/03/11 07:11:28;;;;;;;5.45;2.28;;;7.10;99.90;;;;;;4973509;28;20034;-76
2023/03/11 07:13:54;;;;;;;5.82;2.20;;;7.40;99.50;;;;;;4980615;28;20027;-77
2023/03/11 07:16:26;;;;;;;4.60;2.17;;;7.70;99.60;;;;;;4976687;28;20039;-76
2023/03/11 07:18:56;;;;;;;4.50;2.03;;;7.70;99.40;;;;;;4971121;28;20027;-76
2023/03/11 07:21:22;;;;;;;2.90;1.42;;;7.80;98.90;;;;;;4978541;28;20030;-76
2023/03/11 07:23:52;;;;;;;3.55;1.77;;;8.00;98.40;;;;;;4969872;28;20085;-77
2023/03/11 07:26:18;;;;;;;2.97;1.45;;;8.10;97.60;;;;;;4976741;28;21020;-75
2023/03/11 07:28:44;;;;;;;6.25;1.70;;;8.20;97.90;;;;;;4974108;28;20030;-72
2023/03/11 07:31:19;;;;;;;4.05;2.15;;;8.20;98.50;;;;;;4971647;28;20033;-77
2023/03/11 07:33:45;;;;;;;3.60;2.10;;;7.90;99.20;;;;;;4965010;28;20038;-76
2023/03/11 07:36:14;;;;;;;6.68;2.35;;;8.20;99.20;;;;;;4975835;28;20580;-75
2023/03/11 07:38:40;;;;;;;5.72;2.45;;;8.40;99.00;;;;;;4965121;28;20062;-75
2023/03/11 07:41:06;;;;;;;4.07;2.47;;;8.40;99.50;;;;;;4966654;28;20450;-77
2023/03/11 07:43:33;;;;;;;4.53;2.35;;;8.20;99.90;;;;;;4967025;28;20034;-76
2023/03/11 07:46:08;;;;;;;4.03;2.00;;;8.10;99.90;;;;;;4965869;28;20094;-78
2023/03/11 07:48:37;;;;;;;4.28;2.10;;;8.30;99.90;;;;;;4962271;28;20050;-78
2023/03/11 07:51:07;;;;;;;5.70;2.15;;;8.60;99.40;;;;;;4966732;28;20035;-78
2023/03/11 07:53:33;;;;;;;5.18;1.95;;;8.90;98.50;;;;;;4964153;28;20081;-78
2023/03/11 07:56:00;;;;;;;5.78;2.63;;;9.00;98.70;;;;;;4969411;28;20038;-79
2023/03/11 07:58:25;;;;;;;5.18;2.55;;;8.80;99.60;;;;;;4964595;28;20034;-80
2023/03/11 08:00:51;;;;;;;6.38;2.45;;;8.70;99.70;;;;;;4964160;28;20068;-79
2023/03/11 08:03:17;;;;;;;4.78;2.95;;;8.80;99.30;;;;;;4978072;28;20700;-79
2023/03/11 08:05:43;;;;;;;5.65;3.15;;;8.90;99.60;;;;;;4964506;28;20035;-79
2023/03/11 08:08:09;;;;;;;7.25;3.15;;;8.80;99.70;;;;;;4968871;28;20245;-79
2023/03/11 08:10:38;;;;;;;5.50;2.75;;;8.70;99.80;;;;;;4965659;28;20098;-78
2023/03/11 08:13:04;;;;;;;4.22;2.08;;;8.90;99.90;;;;;;4964731;28;20026;-80
2023/03/11 08:15:29;;;;;;;5.88;2.42;;;9.00;99.50;;;;;;4965034;28;20089;-80
2023/03/11 08:17:55;;;;;;;5.63;2.03;;;9.30;98.40;;;;;;4967625;28;20526;-80
2023/03/11 08:20:21;;;;;;;2.97;1.35;;;9.50;97.40;;;;;;4965711;28;20085;-81
2023/03/11 08:22:46;;;;;;;3.13;1.45;;;9.70;95.90;;;;;;4965861;28;20117;-80
2023/03/11 08:25:12;;;;;;;6.03;2.45;;;9.80;97.00;;;;;;4966032;28;20062;-80
2023/03/11 08:27:39;;;;;;;9.00;3.08;;;9.70;98.00;;;;;;4967050;28;20060;-80
2023/03/11 08:30:05;;;;;;;5.75;2.22;;;9.60;98.60;;;;;;4966939;28;20620;-80
2023/03/11 08:32:32;;;;;;;6.38;2.53;;;9.50;98.40;;;;;;4968884;28;20031;-81
2023/03/11 08:34:58;;;;;;;4.25;2.08;;;9.50;98.20;;;;;;4975882;28;20042;-76
2023/03/11 08:37:23;;;;;;;5.88;2.20;;;9.60;98.20;;;;;;4967274;28;20070;-76
2023/03/11 08:39:49;;;;;;;3.13;1.60;;;9.70;98.10;;;;;;4969983;28;20086;-77
2023/03/11 08:42:16;;;;;;;5.13;1.58;;;9.90;96.60;;;;;;4964689;28;20034;-77
2023/03/11 08:44:42;;;;;;;1.45;0.80;;;10.10;95.50;;;;;;4966194;28;20034;-77
2023/03/11 08:47:08;;;;;;;1.45;0.75;;;10.20;94.30;;;;;;4965796;28;20520;-77
2023/03/11 08:49:35;;;;;;;2.45;0.73;;;10.40;92.70;;;;;;4960210;28;20113;-77
2023/03/11 08:52:01;;;;;;;1.02;0.60;;;10.70;92.20;;;;;;4960735;28;20027;-76
2023/03/11 08:54:27;;;;;;;0.73;0.30;;;10.80;91.50;;;;;;4962230;28;20030;-77
2023/03/11 08:56:53;;;;;;;1.92;0.80;;;11.10;91.10;;;;;;4963155;28;20042;-78
2023/03/11 08:59:19;;;;;;;2.08;0.90;;;11.30;90.00;;;;;;4967728;28;20051;-80
2023/03/11 09:01:45;;;;;;;1.55;0.68;;;11.20;91.30;;;;;;4964040;28;20478;-80
2023/03/11 09:04:11;;;;;;;1.25;0.45;;;11.40;89.00;;;;;;4966127;28;20030;-78
2023/03/11 09:06:41;;;;;;;0.88;0.40;;;11.80;89.10;;;;;;4966388;28;20029;-78
2023/03/11 09:09:08;;;;;;;1.63;0.55;;;11.80;89.40;;;;;;4967158;28;20038;-78
2023/03/11 09:11:36;;;;;;;1.35;0.35;;;11.90;87.30;;;;;;4967532;28;20043;-78
2023/03/11 09:14:02;;;;;;;1.13;0.40;;;11.90;86.10;;;;;;4975696;28;20030;-77
2023/03/11 09:16:27;;;;;;;0.88;0.28;;;12.00;86.60;;;;;;4970566;28;20437;-78
2023/03/11 09:18:54;;;;;;;0.88;0.30;;;12.10;86.10;;;;;;4979390;28;20120;-78
2023/03/11 09:21:19;;;;;;;0.52;0.20;;;12.40;83.30;;;;;;4989341;28;20038;-80
2023/03/11 09:23:45;;;;;;;1.48;0.40;;;12.60;84.00;;;;;;4979944;28;20046;-78
2023/03/11 09:26:12;;;;;;;0.38;0.20;;;12.70;82.90;;;;;;4990540;28;20085;-81
2023/03/11 09:28:38;;;;;;;0.73;0.30;;;12.70;83.60;;;;;;4987830;28;20062;-78
2023/03/11 09:31:04;;;;;;;0.77;0.32;;;12.70;83.00;;;;;;4981582;28;20034;-79
2023/03/11 09:33:30;;;;;;;1.20;0.30;;;12.80;81.30;;;;;;4989935;28;20038;-79
2023/03/11 09:35:57;;;;;;;1.58;0.77;;;12.90;82.10;;;;;;4984797;28;20109;-78
2023/03/11 09:38:23;;;;;;;1.75;0.20;;;13.20;82.60;;;;;;4989789;28;20141;-79
2023/03/11 09:41:17;;;;;;;6.18;1.00;;;13.20;79.40;;;;;;4975676;28;20118;-80
2023/03/11 09:44:01;;;;;;;1.42;0.50;;;13.30;81.10;;;;;;4979527;28;20042;-79
2023/03/11 09:46:54;;;;;;;1.13;0.30;;;13.40;81.00;;;;;;4984361;28;20034;-79
2023/03/11 09:49:44;;;;;;;2.80;0.45;;;13.60;79.10;;;;;;4989229;28;20551;-79
2023/03/11 09:52:12;;;;;;;1.08;0.30;;;13.60;79.60;;;;;;4972678;28;20031;-79
2023/03/11 09:54:47;;;;;;;1.90;0.32;;;13.60;78.20;;;;;;4985587;28;20393;-79
2023/03/11 09:57:18;;;;;;;4.55;0.50;;;13.60;77.70;;;;;;4991839;28;20026;-79
2023/03/11 09:59:45;;;;;;;2.85;0.38;;;13.90;77.90;;;;;;4990718;28;20501;-79
2023/03/11 10:02:20;;;;;;;3.35;0.70;;;14.00;76.60;;;;;;4988970;28;20043;-77
2023/03/11 10:04:57;;;;;;;1.08;0.38;;;14.10;81.90;;;;;;4983576;28;20034;-77
2023/03/11 10:07:38;;;;;;;1.38;0.38;;;14.20;77.30;;;;;;4985116;28;20034;-76
2023/03/11 10:10:05;;;;;;;1.20;0.40;;;14.20;77.00;;;;;;4985600;28;20401;-76
2023/03/11 10:13:04;;;;;;;1.33;0.50;;;14.40;76.30;;;;;;4978159;28;20034;-79
2023/03/11 10:16:00;;;;;;;1.42;0.65;;;14.60;75.40;;;;;;4987088;28;20060;-78
2023/03/11 10:18:37;;;;;;;1.13;0.57;;;14.80;76.10;;;;;;4987560;28;20042;-78
2023/03/11 10:21:27;;;;;;;1.90;0.60;;;14.80;75.80;;;;;;4989909;28;20633;-79
2023/03/11 10:24:04;;;;;;;1.02;0.40;;;14.80;75.10;;;;;;4970713;28;20038;-80
2023/03/11 10:26:36;;;;;;;1.05;0.38;;;14.80;75.20;;;;;;4972048;28;20049;-78
2023/03/11 10:29:27;;;;;;;1.48;0.82;;;14.70;75.40;;;;;;4981997;28;20673;-78
2023/03/11 10:32:12;;;;;;;0.73;0.30;;;14.60;75.10;;;;;;4986103;28;20030;-78
2023/03/11 10:34:47;;;;;;;7.07;0.68;;;14.70;77.10;;;;;;4984573;28;20027;-78
2023/03/11 10:37:31;;;;;;;1.02;0.30;;;14.80;75.90;;;;;;4989456;28;20044;-79
2023/03/11 10:40:06;;;;;;;1.40;0.80;;;14.70;74.90;;;;;;4981060;28;20030;-78
2023/03/11 10:42:33;;;;;;;0.90;0.38;;;14.90;76.50;;;;;;4972663;28;20041;-77
2023/03/11 10:45:00;;;;;;;2.28;0.95;;;15.00;74.50;;;;;;4969231;28;20096;-76
2023/03/11 10:47:26;;;;;;;2.53;0.60;;;15.40;74.70;;;;;;4982856;28;20030;-76
2023/03/11 10:49:51;;;;;;;1.38;0.45;;;15.50;75.60;;;;;;4971866;28;20535;-76
2023/03/11 10:52:18;;;;;;;2.20;0.50;;;15.30;75.00;;;;;;4974942;28;20117;-75
2023/03/11 10:54:46;;;;;;;0.93;0.40;;;15.40;74.50;;;;;;4972445;28;20026;-75
2023/03/11 10:57:37;;;;;;;1.35;0.40;;;15.30;74.30;;;;;;4982050;28;20658;-78
2023/03/11 11:00:11;;;;;;;1.40;0.40;;;15.40;74.40;;;;;;4968437;28;20062;-75
2023/03/11 11:02:52;;;;;;;3.58;0.38;;;15.50;73.80;;;;;;4973696;28;20092;-77
2023/03/11 11:05:19;;;;;;;0.40;0.22;;;15.60;73.50;;;;;;4970688;28;20649;-76
2023/03/11 11:07:52;;;;;;;0.30;0.15;;;15.70;73.90;;;;;;4970466;28;20057;-77
2023/03/11 11:10:26;;;;;;;2.50;0.98;;;16.00;74.10;;;;;;4971510;28;20077;-78
2023/03/11 11:12:55;;;;;;;1.27;0.43;;;16.20;73.70;;;;;;4972650;28;20034;-76
2023/03/11 11:15:21;;;;;;;0.63;0.30;;;16.30;72.30;;;;;;4970832;28;20054;-79
2023/03/11 11:17:47;;;;;;;2.08;0.25;;;16.30;73.30;;;;;;4973100;28;20038;-79
2023/03/11 11:20:18;;;;;;;2.80;0.40;;;16.30;72.30;;;;;;4971179;28;20062;-79
2023/03/11 11:22:59;;;;;;;3.53;0.80;;;16.30;71.20;;;;;;4971203;28;20049;-79
2023/03/11 11:25:31;;;;;;;0.40;0.20;;;16.50;72.20;;;;;;4972466;28;20409;-80
2023/03/11 11:28:14;;;;;;;28.08;2.20;;;16.40;70.40;;;;;;4977538;28;20125;-79
2023/03/11 11:30:56;;;;;;;14.80;1.58;;;16.50;70.80;;;;;;4971827;28;20104;-83
2023/03/11 11:33:39;;;;;;;1.05;0.40;;;16.60;71.50;;;;;;4977082;28;20049;-78
2023/03/11 11:36:13;;;;;;;1.38;0.40;;;16.70;69.90;;;;;;4969201;28;20026;-79
2023/03/11 11:38:39;;;;;;;0.90;0.20;;;17.00;69.30;;;;;;4969303;28;20046;-79
2023/03/11 11:41:05;;;;;;;0.55;0.20;;;17.10;68.90;;;;;;4970431;28;20073;-79
2023/03/11 11:43:51;;;;;;;2.42;0.20;;;17.30;70.90;;;;;;4976502;28;20061;-78
2023/03/11 11:46:43;;;;;;;0.65;0.30;;;17.40;68.90;;;;;;4976165;28;20525;-79
2023/03/11 11:49:30;;;;;;;2.08;0.20;;;17.30;67.50;;;;;;4964465;28;20045;-81
2023/03/11 11:52:16;;;;;;;0.65;0.20;;;17.30;68.80;;;;;;4976571;28;20056;-78
2023/03/11 11:55:02;;;;;;;0.10;0.10;;;17.70;68.80;;;;;;4968660;28;20027;-78
2023/03/11 11:57:28;;;;;;;1.95;0.52;;;17.80;68.20;;;;;;4971243;28;20043;-78
2023/03/11 11:59:54;;;;;;;0.82;0.20;;;17.90;69.60;;;;;;4975130;28;20125;-79
2023/03/11 12:02:32;;;;;;;0.93;0.20;;;18.00;69.30;;;;;;4968522;28;20057;-78
2023/03/11 12:05:30;;;;;;;1.13;0.32;;;17.80;66.10;;;;;;4971286;28;20497;-79
2023/03/11 12:08:14;;;;;;;0.73;0.40;;;17.80;66.80;;;;;;4969562;28;20049;-80
2023/03/11 12:11:03;;;;;;;0.00;0.00;;;17.80;67.70;;;;;;4973707;28;20038;-78
2023/03/11 12:13:59;;;;;;;0.52;0.20;;;17.70;67.90;;;;;;4971837;28;20437;-78
2023/03/11 12:16:40;;;;;;;0.80;0.10;;;18.20;66.20;;;;;;4972283;28;20065;-79
2023/03/11 12:19:11;;;;;;;2.17;0.70;;;18.30;67.50;;;;;;4967058;28;20438;-80
2023/03/11 12:21:52;;;;;;;1.50;0.50;;;18.40;67.20;;;;;;4968826;28;20085;-79
2023/03/11 12:24:39;;;;;;;1.95;0.90;;;18.30;66.00;;;;;;4972904;28;20061;-78
2023/03/11 12:27:18;;;;;;;16.35;1.58;;;18.20;67.50;;;;;;4970368;28;20126;-78
2023/03/11 12:29:49;;;;;;;0.50;0.15;;;18.50;66.60;;;;;;4973606;28;20130;-78
2023/03/11 12:32:43;;;;;;;0.68;0.22;;;18.10;65.60;;;;;;4973338;28;20492;-79
2023/03/11 12:35:16;;;;;;;0.37;0.10;;;18.30;66.20;;;;;;4961069;28;20497;-81
2023/03/11 12:37:42;;;;;;;0.82;0.20;;;18.50;66.30;;;;;;4968105;28;20289;-79
2023/03/11 12:40:46;;;;;;;0.57;0.20;;;18.50;66.70;;;;;;4975719;28;20035;-79
2023/03/11 12:43:32;;;;;;;8.32;0.75;;;18.60;65.30;;;;;;4969655;28;20043;-78
2023/03/11 12:45:59;;;;;;;0.20;0.10;;;18.80;65.70;;;;;;4974042;28;20441;-79
2023/03/11 12:48:28;;;;;;;0.20;0.20;;;18.80;65.90;;;;;;4974740;28;20023;-79
2023/03/11 12:50:56;;;;;;;1.48;0.10;;;18.80;65.80;;;;;;4980168;28;20057;-80
2023/03/11 12:53:44;;;;;;;0.30;0.10;;;18.70;64.90;;;;;;4965701;28;20113;-80
2023/03/11 12:56:19;;;;;;;0.13;0.08;;;18.90;65.00;;;;;;4977050;28;20041;-79
2023/03/11 12:59:02;;;;;;;0.45;0.10;;;19.00;65.30;;;;;;4983496;28;20120;-80
2023/03/11 13:02:03;;;;;;;3.60;0.30;;;19.00;65.60;;;;;;4986708;28;20056;-79
2023/03/11 13:04:47;;;;;;;0.70;0.28;;;19.10;64.30;;;;;;4976300;28;20043;-83
2023/03/11 13:07:21;;;;;;;0.73;0.20;;;19.20;64.10;;;;;;4971590;28;20504;-79